Time;durP1;ratioP1;P1;durP2;ratioP2;P2;SDS_P1;SDS_P2;PMS_P1;PMS_P2;Temp;Humidity;BMP_temperature;BMP_pressure;BME280_temperature;BME280_humidity;BME280_pressure;Samples;Min_cycle;Max_cycle;Signal;HPM_P1;HPM_P2
2022/02/02 00:10:26;;;;;;;8.80;5.43;;;;;;;0.48;73.44;93940.34;5149763;27;20377;-75
2022/02/02 00:12:59;;;;;;;8.23;5.60;;;;;;;0.38;74.10;93937.50;5149830;27;20031;-74
2022/02/02 00:15:39;;;;;;;6.50;4.28;;;;;;;0.31;74.20;93936.22;5149875;27;20029;-74
2022/02/02 00:23:20;;;;;;;8.48;4.90;;;;;;;0.18;74.98;93936.06;5129016;27;20143;-75
2022/02/02 00:25:52;;;;;;;8.50;4.32;;;;;;;0.13;75.31;93930.38;5127509;27;20425;-75
2022/02/02 00:28:21;;;;;;;7.05;4.45;;;;;;;0.12;74.75;93925.38;5134040;27;20031;-75
2022/02/02 00:30:47;;;;;;;6.90;4.43;;;;;;;0.09;75.02;93923.00;5148160;27;20440;-75
2022/02/02 00:33:21;;;;;;;9.13;4.22;;;;;;;0.09;75.23;93926.38;5130726;27;20041;-75
2022/02/02 00:35:57;;;;;;;6.60;4.07;;;;;;;0.04;75.30;93918.16;5148190;27;20051;-74
2022/02/02 00:38:23;;;;;;;6.45;4.30;;;;;;;0.10;74.77;93924.63;5132378;27;20038;-75
2022/02/02 00:40:48;;;;;;;7.45;4.68;;;;;;;0.06;75.32;93916.34;5130850;27;20026;-75
2022/02/02 00:43:14;;;;;;;8.43;3.95;;;;;;;0.06;75.51;93923.19;5149282;27;20033;-75
2022/02/02 00:45:44;;;;;;;8.20;4.45;;;;;;;0.04;75.02;93927.53;5130571;27;20019;-75
2022/02/02 00:48:11;;;;;;;6.10;4.43;;;;;;;0.01;75.61;93925.16;5149254;27;20042;-75
2022/02/02 00:50:37;;;;;;;9.55;4.97;;;;;;;-0.01;75.72;93928.59;5147803;27;20145;-75
2022/02/02 00:53:02;;;;;;;7.70;4.35;;;;;;;0.02;75.36;93921.69;5142397;27;20023;-75
2022/02/02 00:55:28;;;;;;;6.38;4.63;;;;;;;0.04;75.76;93925.00;5127038;28;20058;-75
2022/02/02 00:57:53;;;;;;;7.22;4.95;;;;;;;0.04;75.68;93920.69;5128234;27;20051;-75
2022/02/02 01:00:19;;;;;;;7.88;5.18;;;;;;;0.07;75.36;93909.50;5108784;28;20080;-75
2022/02/02 01:02:44;;;;;;;8.68;5.20;;;;;;;0.06;75.67;93903.56;5130105;27;20030;-75
2022/02/02 01:05:09;;;;;;;6.15;4.80;;;;;;;0.04;75.58;93897.72;5138215;27;20038;-75
2022/02/02 01:10:14;;;;;;;8.50;5.63;;;;;;;0.02;75.36;93891.84;5122063;27;20504;-74
2022/02/02 01:14:11;;;;;;;8.02;5.70;;;;;;;0.04;75.50;93884.13;5117787;27;20036;-74
2022/02/02 01:18:25;;;;;;;8.23;5.97;;;;;;;0.02;75.74;93878.28;5114419;28;20503;-75
2022/02/02 01:20:55;;;;;;;10.68;6.95;;;;;;;0.01;76.04;93879.19;5132048;27;20039;-74
2022/02/02 01:28:32;;;;;;;9.60;6.72;;;;;;;0.01;76.04;93871.53;5133516;27;20430;-74
2022/02/02 01:31:00;;;;;;;8.63;6.50;;;;;;;0.05;75.69;93870.44;5115592;27;20080;-74
2022/02/02 01:33:25;;;;;;;8.98;6.70;;;;;;;-0.05;76.06;93850.53;5113992;27;20103;-75
2022/02/02 01:35:51;;;;;;;11.27;8.05;;;;;;;0.04;75.85;93861.13;5112611;28;20040;-75
2022/02/02 01:38:16;;;;;;;12.48;7.57;;;;;;;0.09;75.64;93862.53;5112339;28;20061;-75
2022/02/02 01:40:47;;;;;;;11.90;8.10;;;;;;;-0.07;75.46;93826.81;5112403;28;20420;-74
2022/02/02 01:43:18;;;;;;;11.00;7.95;;;;;;;0.12;75.31;93841.91;5096290;28;20030;-75
2022/02/02 01:45:52;;;;;;;14.98;8.18;;;;;;;0.08;75.06;93830.22;5112465;28;20043;-75
2022/02/02 01:48:58;;;;;;;13.93;9.63;;;;;;;0.07;75.20;93830.31;5112464;28;20019;-75
2022/02/02 01:54:18;;;;;;;10.40;7.63;;;;;;;0.11;74.90;93830.06;5096534;28;20415;-74
2022/02/02 01:56:43;;;;;;;10.63;7.45;;;;;;;0.09;74.92;93821.66;5112378;28;20051;-75
2022/02/02 02:01:37;;;;;;;13.55;8.07;;;;;;;0.09;75.26;93828.50;5112079;28;20415;-75
2022/02/02 02:04:02;;;;;;;11.45;8.30;;;;;;;0.11;75.05;93824.09;5113569;27;20024;-75
2022/02/02 02:06:27;;;;;;;14.30;8.93;;;;;;;0.06;74.87;93805.69;5112008;28;20028;-75
2022/02/02 02:08:53;;;;;;;11.68;7.88;;;;;;;0.07;74.63;93804.78;5107070;27;20054;-75
2022/02/02 02:11:21;;;;;;;12.25;8.57;;;;;;;0.11;74.61;93804.53;5132554;27;20445;-75
2022/02/02 02:16:31;;;;;;;13.23;8.52;;;;;;;0.13;74.61;93809.53;5110941;28;20034;-75
2022/02/02 02:18:58;;;;;;;12.98;8.25;;;;;;;0.05;74.99;93806.59;5120591;27;20035;-75
2022/02/02 02:21:24;;;;;;;12.02;7.65;;;;;;;0.08;75.23;93799.56;5085068;27;20353;-74
2022/02/02 02:23:50;;;;;;;13.73;8.40;;;;;;;0.05;75.41;93798.94;5108595;28;20038;-75
2022/02/02 02:26:22;;;;;;;13.20;8.20;;;;;;;0.02;75.24;93799.13;5111595;28;20028;-74
2022/02/02 02:58:00;;;;;;;17.75;10.43;;;;;;;0.08;73.60;93796.19;5111950;28;20038;-75
2022/02/02 03:13:47;;;;;;;14.40;9.35;;;;;;;0.04;74.17;93789.63;5112115;27;20489;-74
2022/02/02 04:02:37;;;;;;;15.25;10.57;;;;;;;-0.12;72.82;93770.09;5118271;28;20036;-74
2022/02/02 04:07:47;;;;;;;21.02;12.23;;;;;;;-0.19;72.86;93771.38;5111013;28;20042;-75
2022/02/02 04:10:12;;;;;;;17.35;10.82;;;;;;;-0.16;72.75;93781.41;5111207;28;20042;-75
2022/02/02 04:58:31;;;;;;;15.43;10.63;;;;;;;-0.43;72.35;93791.44;5113539;28;20126;-75
2022/02/02 05:06:45;;;;;;;19.98;12.80;;;;;;;-0.43;71.38;93800.81;5113623;28;20020;-74
2022/02/02 05:48:48;;;;;;;20.55;12.05;;;;;;;-0.57;72.44;93827.94;5119973;27;20030;-74
2022/02/02 05:53:40;;;;;;;18.27;11.00;;;;;;;-0.59;72.62;93823.81;5117428;27;20035;-74
2022/02/02 05:56:05;;;;;;;19.00;12.07;;;;;;;-0.73;72.83;93827.13;5133870;27;20072;-74
2022/02/02 05:58:33;;;;;;;21.08;12.27;;;;;;;-0.72;72.91;93827.06;5132681;27;20412;-73
2022/02/02 06:00:59;;;;;;;19.40;12.48;;;;;;;-0.69;73.44;93831.16;5115801;27;20034;-74
2022/02/02 06:03:33;;;;;;;20.95;12.13;;;;;;;-0.70;73.23;93834.59;5132657;27;20034;-74
2022/02/02 06:05:58;;;;;;;20.10;12.43;;;;;;;-0.79;73.53;93830.00;5132530;27;20080;-74
2022/02/02 06:08:24;;;;;;;22.90;12.55;;;;;;;-0.71;73.59;93836.34;5132320;27;20051;-74
2022/02/02 06:10:49;;;;;;;19.52;12.43;;;;;;;-0.68;73.84;93845.56;5132477;27;20088;-75
2022/02/02 06:13:15;;;;;;;16.98;11.93;;;;;;;-0.66;73.88;93853.13;5132444;27;20035;-75
2022/02/02 06:15:42;;;;;;;18.63;12.43;;;;;;;-0.71;73.93;93850.81;5132375;27;20030;-74
2022/02/02 06:18:07;;;;;;;20.40;12.35;;;;;;;-0.74;73.88;93856.09;5133341;27;20042;-75
2022/02/02 06:20:34;;;;;;;19.98;12.57;;;;;;;-0.70;74.03;93862.66;5132976;27;20035;-75
2022/02/02 06:23:00;;;;;;;21.40;13.50;;;;;;;-0.64;73.84;93867.47;5118644;27;20070;-74
2022/02/02 06:25:28;;;;;;;22.13;12.88;;;;;;;-0.63;74.24;93863.16;5116245;27;20019;-74
2022/02/02 06:27:59;;;;;;;25.92;15.02;;;;;;;-0.73;74.33;93862.81;5128014;27;20067;-75
2022/02/02 06:30:26;;;;;;;29.70;14.95;;;;;;;-0.64;74.36;93867.47;5132125;27;20038;-74
2022/02/02 06:32:52;;;;;;;20.58;14.10;;;;;;;-0.68;74.56;93876.97;5116586;27;20055;-73
2022/02/02 06:35:19;;;;;;;24.02;14.13;;;;;;;-0.70;75.19;93877.97;5111201;27;20051;-73
2022/02/02 06:37:45;;;;;;;21.45;13.57;;;;;;;-0.76;74.69;93881.66;5130684;27;20035;-74
2022/02/02 06:40:11;;;;;;;19.85;12.85;;;;;;;-0.69;74.44;93889.84;5113100;27;20481;-74
2022/02/02 06:42:37;;;;;;;18.33;11.57;;;;;;;-0.74;74.46;93887.50;5129740;27;20032;-74
2022/02/02 06:45:03;;;;;;;18.45;12.68;;;;;;;-0.67;74.67;93895.66;5095698;27;20031;-74
2022/02/02 06:47:29;;;;;;;22.95;13.15;;;;;;;-0.78;74.56;93880.09;5135891;27;20019;-74
2022/02/02 06:50:04;;;;;;;21.73;13.20;;;;;;;-0.85;74.43;93874.53;5109241;27;20046;-73
2022/02/02 06:52:30;;;;;;;20.40;14.18;;;;;;;-0.79;74.72;93879.28;5118001;27;20467;-74
2022/02/02 06:55:03;;;;;;;22.30;14.05;;;;;;;-0.80;74.16;93881.94;5123595;27;20072;-74
2022/02/02 06:57:41;;;;;;;22.70;13.23;;;;;;;-0.79;74.63;93871.63;5115344;27;20484;-74
2022/02/02 07:00:30;;;;;;;21.75;14.65;;;;;;;-0.73;74.40;93880.69;5123533;27;20032;-74
2022/02/02 07:03:05;;;;;;;26.27;15.35;;;;;;;-0.74;74.13;93891.81;5122988;27;20530;-74
2022/02/02 07:08:24;;;;;;;23.73;15.55;;;;;;;-0.69;74.54;93887.28;5113464;27;20535;-75
2022/02/02 07:24:08;;;;;;;28.65;16.98;;;;;;;-0.64;73.56;93892.13;5113526;27;20035;-75
2022/02/02 07:29:12;;;;;;;26.02;13.57;;;;;;;-0.58;73.14;93895.19;5111912;27;20104;-75
2022/02/02 07:32:07;;;;;;;25.27;13.98;;;;;;;-0.52;72.97;93892.28;5131026;27;20123;-75
2022/02/02 07:35:22;;;;;;;24.40;14.77;;;;;;;-0.51;73.27;93893.91;5126510;27;20031;-74
2022/02/02 07:38:11;;;;;;;27.10;14.27;;;;;;;-0.51;72.92;93893.91;5126556;27;20133;-75
2022/02/02 07:40:39;;;;;;;23.92;15.02;;;;;;;-0.59;72.55;93903.72;5128312;27;20118;-74
2022/02/02 07:43:05;;;;;;;24.67;16.13;;;;;;;-0.58;72.56;93895.19;5110908;28;20036;-75
2022/02/02 07:45:31;;;;;;;22.77;14.75;;;;;;;-0.53;72.80;93893.22;5113385;27;20023;-75
2022/02/02 07:48:01;;;;;;;20.48;13.48;;;;;;;-0.58;72.14;93892.63;5110641;28;20027;-75
2022/02/02 07:50:32;;;;;;;23.00;13.98;;;;;;;-0.52;71.84;93896.56;5114901;27;20035;-74
2022/02/02 07:53:03;;;;;;;21.73;14.10;;;;;;;-0.47;71.66;93890.31;5134644;27;20031;-74
2022/02/02 07:55:29;;;;;;;25.13;14.75;;;;;;;-0.50;71.56;93885.38;5118293;27;20034;-74
2022/02/02 07:57:57;;;;;;;23.55;14.77;;;;;;;-0.44;71.71;93883.41;5093329;28;20039;-75
2022/02/02 08:00:23;;;;;;;27.08;16.08;;;;;;;-0.46;71.24;93894.50;5111345;28;20027;-74
2022/02/02 08:03:10;;;;;;;31.67;17.33;;;;;;;-0.59;71.16;93895.25;5130570;27;20042;-75
2022/02/02 08:05:40;;;;;;;23.92;13.45;;;;;;;-0.51;71.23;93893.91;5124251;28;20038;-73
2022/02/02 08:10:36;;;;;;;17.52;10.88;;;;;;;-0.46;70.43;93874.09;5111132;28;20118;-74
2022/02/02 08:13:09;;;;;;;17.88;11.88;;;;;;;-0.43;70.52;93879.94;5130652;27;20027;-74
2022/02/02 08:15:35;;;;;;;18.83;12.60;;;;;;;-0.36;70.45;93878.66;5115570;27;20095;-74
2022/02/02 08:18:01;;;;;;;23.75;13.45;;;;;;;-0.34;69.68;93879.41;5124279;27;20470;-74
2022/02/02 08:20:26;;;;;;;20.17;12.65;;;;;;;-0.25;69.62;93884.03;5131398;27;20061;-74
2022/02/02 08:22:52;;;;;;;19.83;12.20;;;;;;;-0.14;68.59;93880.84;5134754;27;20389;-74
2022/02/02 08:25:37;;;;;;;20.38;13.45;;;;;;;-0.13;68.46;93874.88;5133801;27;20507;-73
2022/02/02 08:28:05;;;;;;;15.00;10.65;;;;;;;-0.08;68.27;93875.44;5114233;27;20065;-75
2022/02/02 08:30:30;;;;;;;24.80;15.13;;;;;;;-0.04;67.81;93876.88;5115912;27;20046;-73
2022/02/02 08:33:00;;;;;;;21.20;12.77;;;;;;;-0.03;67.40;93878.53;5133187;27;20519;-74
2022/02/02 08:35:35;;;;;;;16.67;10.52;;;;;;;-0.03;67.27;93881.94;5112803;27;20497;-74
2022/02/02 08:40:35;;;;;;;18.85;11.95;;;;;;;-0.03;66.58;93874.25;5118589;27;20089;-75
2022/02/02 08:43:08;;;;;;;17.83;11.35;;;;;;;0.08;66.79;93875.38;5114225;27;20105;-73
2022/02/02 08:45:36;;;;;;;19.25;11.55;;;;;;;0.14;67.47;93875.00;5135103;27;20039;-74
2022/02/02 08:48:06;;;;;;;21.25;11.93;;;;;;;0.16;65.43;93868.09;5127213;27;20027;-74
2022/02/02 08:50:46;;;;;;;20.02;10.52;;;;;;;0.23;65.11;93877.06;5126343;27;20015;-73
2022/02/02 08:56:31;;;;;;;20.48;11.45;;;;;;;0.37;66.12;93874.53;5089636;27;20050;-73
2022/02/02 08:59:03;;;;;;;24.52;14.35;;;;;;;0.47;66.91;93877.34;5106838;27;20051;-73
2022/02/02 09:01:32;;;;;;;27.20;15.23;;;;;;;0.52;66.11;93869.44;5131472;27;20377;-73
2022/02/02 09:06:41;;;;;;;17.15;11.60;;;;;;;0.66;65.69;93879.66;5131038;27;20042;-73
2022/02/02 09:09:11;;;;;;;19.60;11.82;;;;;;;0.71;64.88;93876.84;5132561;27;20055;-72
2022/02/02 09:25:22;;;;;;;20.73;12.68;;;;;;;1.21;62.03;93870.41;5130488;27;20030;-73
2022/02/02 09:35:44;;;;;;;19.05;13.02;;;;;;;1.27;61.35;93863.16;5125745;27;20024;-73
2022/02/02 09:38:09;;;;;;;21.42;13.40;;;;;;;1.33;61.81;93873.03;5112039;27;20202;-73
2022/02/02 09:43:00;;;;;;;22.42;12.25;;;;;;;1.50;62.30;93858.34;5113405;27;20035;-73
2022/02/02 09:45:27;;;;;;;24.20;14.45;;;;;;;1.60;62.68;93858.63;5108976;27;20489;-73
2022/02/02 09:48:00;;;;;;;27.85;15.27;;;;;;;1.62;60.57;93855.06;5127470;27;20047;-73
2022/02/02 09:50:36;;;;;;;29.20;16.27;;;;;;;1.59;59.78;93857.81;5101048;27;20030;-72
2022/02/02 09:53:04;;;;;;;24.42;15.23;;;;;;;1.66;61.46;93859.03;5122922;27;20458;-73
2022/02/02 09:55:52;;;;;;;18.92;12.07;;;;;;;1.49;60.07;93851.59;5124077;27;20077;-72
2022/02/02 10:01:16;;;;;;;22.52;15.57;;;;;;;1.54;60.93;93852.16;5128610;27;20023;-72
2022/02/02 10:04:05;;;;;;;15.48;10.85;;;;;;;1.47;59.28;93849.13;5119728;27;20421;-73
2022/02/02 10:14:24;;;;;;;34.42;17.35;;;;;;;1.52;59.87;93853.97;5104901;28;20036;-74
2022/02/02 10:16:50;;;;;;;26.73;17.15;;;;;;;1.46;59.63;93849.25;5121466;27;20175;-73
2022/02/02 10:19:20;;;;;;;23.73;15.40;;;;;;;1.45;59.93;93850.16;5131736;27;20081;-74
2022/02/02 10:21:46;;;;;;;24.98;17.02;;;;;;;1.34;58.20;93846.53;5130438;27;20031;-72
2022/02/02 10:24:11;;;;;;;23.48;15.27;;;;;;;1.23;57.96;93841.25;5095566;27;20080;-74
2022/02/02 10:26:47;;;;;;;18.70;9.85;;;;;;;1.13;57.89;93852.97;5106402;27;20573;-72
2022/02/02 10:29:15;;;;;;;21.90;13.23;;;;;;;1.02;58.11;93840.00;5127691;27;20038;-72
2022/02/02 10:31:46;;;;;;;34.95;18.33;;;;;;;1.02;58.20;93848.50;5115014;27;20058;-72
2022/02/02 10:34:16;;;;;;;34.05;18.23;;;;;;;1.03;59.05;93841.66;5130254;27;20508;-72
2022/02/02 10:36:42;;;;;;;34.95;18.30;;;;;;;0.98;59.92;93833.47;5122069;27;20415;-76
2022/02/02 10:39:18;;;;;;;27.38;17.85;;;;;;;0.99;60.01;93846.13;5100900;28;20184;-74
2022/02/02 10:41:57;;;;;;;23.52;14.90;;;;;;;0.93;59.72;93843.94;5123418;27;20509;-73
2022/02/02 10:44:50;;;;;;;31.38;20.17;;;;;;;0.95;59.90;93848.97;5115350;27;20035;-72
2022/02/02 10:47:26;;;;;;;22.50;14.25;;;;;;;0.98;60.10;93843.69;5098689;27;20091;-72
2022/02/02 10:50:01;;;;;;;22.90;13.40;;;;;;;1.07;60.79;93840.56;5107779;27;20039;-72
2022/02/02 10:52:44;;;;;;;17.80;11.43;;;;;;;1.07;60.83;93850.78;5129372;27;20027;-73
2022/02/02 11:01:31;;;;;;;20.40;11.75;;;;;;;0.91;59.55;93835.53;5108655;27;20059;-77
2022/02/02 11:06:40;;;;;;;41.75;21.90;;;;;;;0.97;59.68;93842.03;5122835;27;20031;-72
2022/02/02 11:09:07;;;;;;;23.48;14.43;;;;;;;0.94;58.96;93834.53;5098171;27;20103;-72
2022/02/02 11:11:33;;;;;;;21.33;12.88;;;;;;;1.01;59.48;93838.38;5109355;27;20062;-71
2022/02/02 11:14:03;;;;;;;23.38;12.88;;;;;;;1.07;60.53;93833.69;5110820;27;20027;-74
2022/02/02 11:16:33;;;;;;;23.23;13.00;;;;;;;1.10;59.87;93823.28;5096563;28;20047;-72
2022/02/02 11:19:00;;;;;;;21.02;12.07;;;;;;;1.13;59.21;93829.13;5100774;27;20039;-74
2022/02/02 11:21:35;;;;;;;23.40;11.88;;;;;;;1.02;59.29;93811.88;5126429;27;20038;-72
2022/02/02 11:24:16;;;;;;;23.52;14.13;;;;;;;1.20;59.45;93831.22;5079539;27;20038;-72
2022/02/02 11:26:48;;;;;;;19.20;12.18;;;;;;;1.32;58.79;93829.63;5127079;27;20030;-73
2022/02/02 11:29:42;;;;;;;17.23;10.85;;;;;;;1.37;58.13;93832.72;5112283;27;20070;-72
2022/02/02 11:32:11;;;;;;;18.27;10.10;;;;;;;1.48;59.41;93829.50;5125010;27;20037;-74
2022/02/02 11:34:40;;;;;;;16.65;9.90;;;;;;;1.45;58.09;93824.53;5119543;27;20023;-76
2022/02/02 11:37:07;;;;;;;20.73;11.50;;;;;;;1.50;58.75;93825.09;5113195;27;20125;-75
2022/02/02 11:39:36;;;;;;;23.63;11.57;;;;;;;1.63;57.78;93828.50;5149690;27;20179;-75
2022/02/02 11:42:13;;;;;;;16.67;10.95;;;;;;;1.56;56.06;93802.50;5131920;27;20030;-76
2022/02/02 11:45:06;;;;;;;34.88;15.02;;;;;;;1.71;55.38;93813.47;5130940;27;20031;-75
2022/02/02 11:47:43;;;;;;;35.95;15.00;;;;;;;1.78;57.39;93812.19;5117730;27;20070;-74
2022/02/02 11:50:09;;;;;;;19.75;11.20;;;;;;;1.83;55.57;93818.75;5113950;27;20020;-74
2022/02/02 11:52:38;;;;;;;27.25;10.85;;;;;;;1.77;54.86;93810.53;5141012;27;20445;-75
2022/02/02 11:55:10;;;;;;;17.75;9.98;;;;;;;1.69;54.66;93805.06;5148301;27;20596;-74
2022/02/02 11:58:02;;;;;;;16.23;9.57;;;;;;;1.74;54.02;93800.47;5130721;27;20035;-75
2022/02/02 12:08:30;;;;;;;18.17;11.15;;;;;;;1.94;54.54;93812.00;5149427;27;20053;-74
2022/02/02 12:11:23;;;;;;;21.70;9.27;;;;;;;1.94;53.15;93804.31;5135700;27;20019;-73
2022/02/02 12:20:26;;;;;;;22.58;11.07;;;;;;;1.95;54.82;93800.00;5130474;28;20435;-74
2022/02/02 12:49:40;;;;;;;21.25;12.57;;;;;;;2.42;55.50;93796.88;5129107;28;20549;-73
2022/02/02 12:57:37;;;;;;;28.88;13.13;;;;;;;2.52;54.36;93812.44;5115924;28;20252;-73
2022/02/02 13:00:07;;;;;;;24.38;12.65;;;;;;;2.44;53.94;93796.75;5110574;28;20084;-74
2022/02/02 13:02:35;;;;;;;20.98;11.70;;;;;;;2.45;54.59;93803.53;5120621;27;20368;-73
2022/02/02 13:05:01;;;;;;;16.13;11.15;;;;;;;2.52;53.52;93797.06;5150363;27;20395;-74
2022/02/02 13:07:28;;;;;;;15.63;9.43;;;;;;;2.47;53.43;93794.00;5129775;27;20027;-74
2022/02/02 13:09:54;;;;;;;16.35;10.95;;;;;;;2.46;53.45;93790.63;5110381;27;20043;-73
2022/02/02 13:12:32;;;;;;;27.30;12.98;;;;;;;2.46;53.75;93794.94;5109389;27;20555;-75
2022/02/02 13:15:19;;;;;;;18.98;11.00;;;;;;;2.55;54.53;93807.13;5126913;27;20708;-75
2022/02/02 13:20:57;;;;;;;33.65;16.65;;;;;;;2.51;53.49;93798.00;5128179;27;20112;-73
2022/02/02 13:23:39;;;;;;;27.88;12.60;;;;;;;2.52;53.30;93803.94;5122751;27;20059;-73
2022/02/02 13:26:09;;;;;;;28.85;13.52;;;;;;;2.50;53.09;93801.47;5097114;28;20027;-73
2022/02/02 13:28:36;;;;;;;21.38;12.05;;;;;;;2.45;52.96;93795.84;5117681;27;20054;-73
2022/02/02 13:31:02;;;;;;;33.10;17.27;;;;;;;2.42;54.93;93781.50;5120274;27;20037;-74
2022/02/02 13:33:34;;;;;;;23.48;14.20;;;;;;;2.47;55.45;93786.31;5105593;27;20039;-73
2022/02/02 13:39:09;;;;;;;37.33;16.38;;;;;;;2.43;54.76;93787.44;5118727;27;20569;-74
2022/02/02 13:44:46;;;;;;;30.23;13.68;;;;;;;2.52;53.79;93791.13;5117850;27;20039;-75
2022/02/02 13:52:46;;;;;;;21.67;12.40;;;;;;;2.46;54.61;93794.94;5110870;27;20015;-73
2022/02/02 13:55:32;;;;;;;19.85;10.82;;;;;;;2.44;54.28;93794.19;5112940;27;20020;-74
2022/02/02 14:01:12;;;;;;;21.27;10.80;;;;;;;2.38;54.24;93804.88;5110485;27;20525;-77
2022/02/02 14:33:15;;;;;;;14.27;9.98;;;;;;;2.23;59.12;93816.97;5095063;28;20042;-72
2022/02/02 14:35:43;;;;;;;16.92;9.55;;;;;;;2.10;55.97;93819.50;5110293;28;20428;-72
2022/02/02 14:38:08;;;;;;;21.88;12.20;;;;;;;2.03;56.28;93815.69;5111553;28;20028;-72
2022/02/02 14:40:44;;;;;;;44.67;24.20;;;;;;;1.97;54.55;93805.84;5111423;28;20035;-72
2022/02/02 14:43:12;;;;;;;20.45;12.63;;;;;;;1.98;59.09;93804.94;5095112;28;20046;-72
2022/02/02 14:45:42;;;;;;;14.23;8.93;;;;;;;1.95;59.01;93815.38;5110475;28;20496;-72
2022/02/02 14:48:16;;;;;;;16.33;9.32;;;;;;;1.93;60.56;93807.00;5078666;28;20067;-72
2022/02/02 14:51:07;;;;;;;14.13;7.93;;;;;;;1.90;60.24;93804.63;5112466;28;20485;-72
2022/02/02 14:54:05;;;;;;;14.93;8.13;;;;;;;1.83;61.64;93793.94;5112500;28;20032;-72
2022/02/02 14:56:49;;;;;;;10.38;7.47;;;;;;;1.77;60.39;93800.28;5111060;28;20126;-72
2022/02/02 15:09:07;;;;;;;11.60;7.50;;;;;;;1.44;64.81;93807.56;5111107;28;20030;-74
2022/02/02 15:31:52;;;;;;;12.27;8.52;;;;;;;1.17;64.15;93813.50;5098618;27;20039;-72
2022/02/02 15:34:27;;;;;;;11.13;7.55;;;;;;;1.13;63.39;93809.47;5118010;27;20123;-78
2022/02/02 15:39:23;;;;;;;12.35;8.00;;;;;;;0.92;65.55;93810.78;5107270;27;20039;-73
2022/02/02 15:58:19;;;;;;;17.08;9.88;;;;;;;0.82;67.62;93846.34;5132063;27;20039;-76
2022/02/02 16:03:25;;;;;;;25.75;13.95;;;;;;;0.82;64.50;93846.34;5113167;28;20071;-76
2022/02/02 16:05:55;;;;;;;26.33;12.60;;;;;;;0.89;61.16;93857.81;5109159;28;20032;-77
2022/02/02 16:08:24;;;;;;;24.80;15.45;;;;;;;0.86;61.28;93851.19;5104276;28;20081;-74
2022/02/02 16:11:02;;;;;;;20.10;12.15;;;;;;;0.94;61.17;93860.13;5130792;27;20025;-76
2022/02/02 16:16:00;;;;;;;19.77;13.15;;;;;;;1.01;60.90;93851.16;5127385;28;20031;-76
2022/02/02 16:38:00;;;;;;;13.32;8.50;;;;;;;0.99;62.10;93868.34;5109599;28;20066;-75
2022/02/02 16:40:31;;;;;;;14.32;8.50;;;;;;;1.01;63.37;93857.09;5120532;27;20092;-76
2022/02/02 16:45:35;;;;;;;12.18;8.05;;;;;;;1.03;63.97;93883.41;5131504;27;20419;-66
2022/02/02 16:48:00;;;;;;;14.23;8.20;;;;;;;1.05;62.47;93884.13;5121981;27;20027;-66
2022/02/02 16:50:31;;;;;;;13.23;8.32;;;;;;;1.08;64.11;93895.91;5116806;27;20397;-65
2022/02/02 16:53:01;;;;;;;28.42;15.70;;;;;;;1.00;60.39;93890.44;5132338;27;20035;-66
2022/02/02 16:55:38;;;;;;;21.42;13.02;;;;;;;1.04;61.60;93899.59;5123639;27;20041;-66
2022/02/02 17:35:21;;;;;;;32.63;17.52;;;;;;;1.09;60.07;93916.28;5131423;27;20038;-66
2022/02/02 17:38:06;;;;;;;21.98;11.65;;;;;;;1.10;59.78;93915.38;5124067;27;20035;-66
2022/02/02 17:40:46;;;;;;;16.63;9.57;;;;;;;1.01;58.96;93918.50;5134006;27;20496;-66
2022/02/02 18:12:35;;;;;;;17.92;9.18;;;;;;;0.93;59.60;93930.09;5127022;27;20030;-67
2022/02/02 18:20:29;;;;;;;10.88;6.72;;;;;;;0.95;60.68;93939.31;5129517;27;20043;-67
2022/02/02 18:23:07;;;;;;;12.25;6.93;;;;;;;0.96;61.58;93950.38;5122025;27;20027;-67
2022/02/02 18:25:42;;;;;;;12.90;6.00;;;;;;;0.89;64.43;93940.50;5123949;27;20027;-66
2022/02/02 18:35:51;;;;;;;15.40;8.68;;;;;;;0.84;60.36;93970.63;5107611;27;20040;-66
2022/02/02 18:39:37;;;;;;;11.98;7.28;;;;;;;0.75;59.50;93962.66;5130234;27;20023;-66
2022/02/02 18:49:20;;;;;;;10.80;4.97;;;;;;;0.79;59.57;93977.75;5144299;27;20034;-66
2022/02/02 18:52:26;;;;;;;10.45;6.03;;;;;;;0.70;60.34;93974.88;5121629;27;20460;-67
2022/02/02 19:54:23;;;;;;;11.00;6.97;;;;;;;0.64;64.34;94024.63;5118554;27;20203;-66
2022/02/02 19:56:19;;;;;;;9.00;5.65;;;;;;;0.59;63.94;94029.19;5111277;27;20035;-66
2022/02/02 20:04:34;;;;;;;9.38;5.30;;;;;;;0.60;64.11;94036.78;5127224;28;20070;-66
2022/02/02 20:12:03;;;;;;;9.90;5.78;;;;;;;0.50;64.76;94050.97;5133132;27;20038;-66
2022/02/02 20:14:29;;;;;;;10.05;4.32;;;;;;;0.40;65.45;94048.13;5128563;27;20515;-66
2022/02/02 20:16:54;;;;;;;8.38;4.90;;;;;;;0.41;65.65;94056.59;5129916;27;20030;-66
2022/02/02 20:19:20;;;;;;;7.13;4.72;;;;;;;0.46;65.57;94052.06;5130230;27;20039;-66
2022/02/02 20:21:53;;;;;;;7.20;4.65;;;;;;;0.53;65.51;94050.81;5132579;27;20034;-65
2022/02/02 20:24:22;;;;;;;8.25;5.28;;;;;;;0.58;65.59;94048.00;5134786;27;20126;-66
2022/02/02 20:26:49;;;;;;;8.90;5.55;;;;;;;0.46;65.72;94023.13;5128093;27;20023;-66
2022/02/02 20:29:15;;;;;;;8.98;5.60;;;;;;;0.58;65.60;94048.81;5131820;27;20130;-66
2022/02/02 20:31:42;;;;;;;8.27;5.78;;;;;;;0.60;65.82;94043.63;5127741;27;20461;-66
2022/02/02 20:34:08;;;;;;;10.07;6.45;;;;;;;0.56;66.32;94039.59;5128703;27;20424;-66
2022/02/02 20:36:38;;;;;;;21.30;10.93;;;;;;;0.58;66.00;94053.09;5125373;27;20027;-67
2022/02/02 20:39:10;;;;;;;12.27;8.18;;;;;;;0.65;65.81;94044.19;5128244;27;20039;-66
2022/02/02 20:41:37;;;;;;;;;;;;;;;0.64;65.79;94043.38;5132089;27;20023;-66
2022/02/02 20:44:05;;;;;;;11.25;8.25;;;;;;;0.69;65.93;94044.84;5127866;27;20380;-66
2022/02/02 21:10:16;;;;;;;8.80;5.80;;;;;;;0.70;64.75;94031.13;5130155;27;20110;-66
2022/02/02 21:15:29;;;;;;;7.82;4.97;;;;;;;0.67;64.52;94034.72;5122216;27;20030;-66
2022/02/02 21:17:56;;;;;;;8.00;5.40;;;;;;;0.63;64.00;94030.66;5130960;27;20058;-66
2022/02/02 21:20:28;;;;;;;8.95;4.55;;;;;;;0.66;63.89;94035.59;5109147;27;20489;-66
2022/02/02 21:23:02;;;;;;;6.72;4.53;;;;;;;0.70;63.79;94031.97;5130431;27;20050;-65
2022/02/02 21:27:57;;;;;;;8.55;4.60;;;;;;;0.66;64.04;94035.59;5127475;27;20416;-66
2022/02/02 21:30:22;;;;;;;6.35;4.53;;;;;;;0.68;64.44;94041.47;5129066;27;20029;-66
2022/02/02 21:32:48;;;;;;;6.10;4.75;;;;;;;0.66;63.89;94033.88;5107127;27;20039;-66
2022/02/02 21:35:16;;;;;;;7.78;4.90;;;;;;;0.69;64.54;94039.72;5127625;27;20027;-65
2022/02/02 21:37:44;;;;;;;7.90;5.40;;;;;;;0.69;64.43;94040.53;5126091;27;20039;-66
2022/02/02 21:40:23;;;;;;;6.95;4.63;;;;;;;0.63;63.62;94036.59;5121681;27;20019;-66
2022/02/02 21:42:49;;;;;;;6.10;4.30;;;;;;;0.68;64.54;94038.91;5115073;27;20039;-66
2022/02/02 21:45:15;;;;;;;6.82;4.10;;;;;;;0.65;63.13;94039.06;5097657;27;20508;-66
2022/02/02 21:47:41;;;;;;;6.43;4.05;;;;;;;0.59;64.02;94044.53;5115661;27;20054;-66
2022/02/02 21:50:11;;;;;;;8.68;4.75;;;;;;;0.61;63.14;94047.81;5122952;27;20032;-66
2022/02/02 21:52:37;;;;;;;5.90;4.22;;;;;;;0.57;63.46;94054.03;5107783;27;20044;-65
2022/02/02 21:55:03;;;;;;;5.25;3.72;;;;;;;0.54;63.71;94064.41;5130305;27;20039;-66
2022/02/02 21:57:28;;;;;;;6.00;4.20;;;;;;;0.49;63.49;94062.09;5109774;27;20019;-66
2022/02/02 21:59:54;;;;;;;6.45;4.00;;;;;;;0.39;64.12;94069.47;5132911;27;20421;-66
2022/02/02 22:02:19;;;;;;;6.80;3.85;;;;;;;0.31;64.83;94066.50;5126580;27;20516;-66
2022/02/02 22:04:45;;;;;;;5.80;3.92;;;;;;;0.42;64.93;94066.75;5107214;27;20503;-66
2022/02/02 22:07:10;;;;;;;6.63;3.95;;;;;;;0.35;65.50;94073.09;5123254;27;20102;-66
2022/02/02 22:09:36;;;;;;;6.40;4.00;;;;;;;0.32;65.66;94063.03;5113506;27;20125;-66
2022/02/02 22:12:01;;;;;;;7.07;4.10;;;;;;;0.38;65.58;94061.88;5131244;27;20477;-66
2022/02/02 22:14:27;;;;;;;6.53;4.38;;;;;;;0.43;65.62;94063.28;5133256;27;20032;-66
2022/02/02 22:16:56;;;;;;;7.32;4.18;;;;;;;0.51;64.94;94062.84;5126713;27;20023;-68
2022/02/02 22:19:21;;;;;;;6.18;3.83;;;;;;;0.44;65.28;94067.47;5112852;27;20042;-66
2022/02/02 22:21:47;;;;;;;7.60;4.00;;;;;;;0.51;65.60;94069.69;5125966;27;20052;-66
2022/02/02 22:24:13;;;;;;;6.20;4.07;;;;;;;0.50;65.56;94071.41;5114080;27;20416;-66
2022/02/02 22:26:38;;;;;;;7.38;4.38;;;;;;;0.50;65.92;94073.16;5129438;27;20042;-66
2022/02/02 22:29:04;;;;;;;6.30;4.65;;;;;;;0.53;66.33;94068.72;5131868;27;20039;-65
2022/02/02 22:31:30;;;;;;;7.20;4.50;;;;;;;0.52;66.23;94071.34;5110038;27;20497;-65
2022/02/02 22:33:55;;;;;;;6.90;4.85;;;;;;;0.56;65.83;94075.38;5126927;27;20031;-65